Time;durP1;ratioP1;P1;durP2;ratioP2;P2;SDS_P1;SDS_P2;PMS_P1;PMS_P2;Temp;Humidity;BMP_temperature;BMP_pressure;BME280_temperature;BME280_humidity;BME280_pressure;Samples;Min_cycle;Max_cycle;Signal;HPM_P1;HPM_P2
2022/08/06 00:02:05;;;;;;;3.63;1.92;;;;;;;18.52;58.07;101452.41;5095019;28;20066;-30
2022/08/06 00:04:31;;;;;;;2.17;1.80;;;;;;;18.49;58.06;101464.06;5075965;28;20019;-30
2022/08/06 00:06:57;;;;;;;2.63;1.48;;;;;;;18.48;58.05;101467.66;5103500;28;20031;-30
2022/08/06 00:09:22;;;;;;;2.90;1.45;;;;;;;18.41;57.93;101476.78;5073356;28;20028;-30
2022/08/06 00:11:47;;;;;;;1.60;1.50;;;;;;;18.40;58.20;101481.22;5079353;28;20024;-30
2022/08/06 00:14:13;;;;;;;2.50;1.70;;;;;;;18.38;58.23;101480.41;5096101;28;20061;-30
2022/08/06 00:16:38;;;;;;;1.48;1.38;;;;;;;18.34;57.50;101470.72;5104841;28;20031;-30
2022/08/06 00:19:04;;;;;;;1.60;1.50;;;;;;;18.25;57.71;101471.88;5100922;28;20035;-29
2022/08/06 00:21:30;;;;;;;2.33;1.50;;;;;;;18.23;57.67;101470.19;5075320;28;20032;-30
2022/08/06 00:23:56;;;;;;;1.98;1.42;;;;;;;18.19;57.19;101477.38;5098163;28;20102;-27
2022/08/06 00:26:22;;;;;;;2.25;1.50;;;;;;;18.14;58.16;101469.50;5100418;28;20103;-31
2022/08/06 00:28:48;;;;;;;1.33;1.23;;;;;;;18.16;57.42;101472.13;5076777;28;20032;-30
2022/08/06 00:31:13;;;;;;;2.35;1.45;;;;;;;18.07;57.77;101468.78;5069826;28;20371;-30
2022/08/06 00:33:41;;;;;;;1.80;1.42;;;;;;;18.09;57.57;101471.44;5096719;28;20047;-30
2022/08/06 00:36:07;;;;;;;2.28;1.40;;;;;;;18.03;57.27;101477.78;5078242;28;20035;-30
2022/08/06 00:38:32;;;;;;;1.83;1.20;;;;;;;17.99;57.42;101484.13;5074536;28;20113;-30
2022/08/06 00:40:57;;;;;;;1.80;1.15;;;;;;;17.96;57.82;101492.22;5075539;28;20059;-30
2022/08/06 00:43:23;;;;;;;1.25;1.15;;;;;;;17.91;57.52;101489.66;5074814;28;20028;-30
2022/08/06 00:45:48;;;;;;;2.65;1.27;;;;;;;17.91;57.24;101492.34;5066806;28;20395;-30
2022/08/06 00:48:13;;;;;;;1.85;1.27;;;;;;;17.88;57.41;101488.88;5066647;28;20467;-30
2022/08/06 00:50:39;;;;;;;1.58;1.48;;;;;;;17.87;57.32;101490.66;5095587;28;20024;-30
2022/08/06 00:53:04;;;;;;;3.22;1.40;;;;;;;17.83;57.19;101481.88;5074293;28;20114;-30
2022/08/06 00:55:30;;;;;;;1.52;1.27;;;;;;;17.80;57.43;101481.97;5099042;28;20020;-30
2022/08/06 00:57:56;;;;;;;1.40;1.30;;;;;;;17.75;57.68;101483.88;5058176;28;20086;-30
2022/08/06 01:00:21;;;;;;;1.20;1.00;;;;;;;17.77;57.35;101491.84;5084095;28;20024;-30
2022/08/06 01:02:48;;;;;;;2.45;1.30;;;;;;;17.72;57.44;101485.75;5093727;28;20111;-30
2022/08/06 01:05:13;;;;;;;1.27;1.17;;;;;;;17.66;57.58;101476.09;5083484;28;20459;-30
2022/08/06 01:07:38;;;;;;;3.05;1.35;;;;;;;17.63;57.41;101478.84;5082758;28;20035;-30
2022/08/06 01:10:04;;;;;;;1.08;1.08;;;;;;;17.61;57.63;101491.38;5093370;28;20032;-30
2022/08/06 01:12:29;;;;;;;1.52;1.40;;;;;;;17.55;57.35;101493.25;5054772;28;20043;-30
2022/08/06 01:14:55;;;;;;;1.55;1.27;;;;;;;17.53;57.62;101499.53;5066463;28;20028;-28
2022/08/06 01:17:28;;;;;;;1.33;1.23;;;;;;;17.50;57.63;101495.16;5061836;28;20020;-28
2022/08/06 01:20:18;;;;;;;1.20;1.10;;;;;;;17.47;57.38;101494.38;5082544;28;20039;-27
2022/08/06 01:23:02;;;;;;;1.50;1.40;;;;;;;17.40;57.43;101489.19;5055385;28;20052;-28
2022/08/06 01:26:01;;;;;;;1.17;1.08;;;;;;;17.40;57.58;101494.53;5073587;28;20032;-27
2022/08/06 01:28:28;;;;;;;2.33;1.20;;;;;;;17.36;57.55;101498.19;5094504;28;20441;-28
2022/08/06 01:31:04;;;;;;;1.48;1.38;;;;;;;17.33;57.46;101494.72;5094993;28;20098;-27
2022/08/06 01:33:34;;;;;;;2.65;1.60;;;;;;;17.29;57.79;101507.25;5079223;28;20035;-27
2022/08/06 01:36:03;;;;;;;2.40;1.10;;;;;;;17.28;57.88;101503.69;5082122;28;20061;-28
2022/08/06 01:38:36;;;;;;;1.80;1.23;;;;;;;17.24;57.95;101498.50;5062643;28;20119;-27
2022/08/06 01:41:03;;;;;;;1.52;1.42;;;;;;;17.18;57.82;101513.69;5089062;28;20038;-27
2022/08/06 01:43:31;;;;;;;1.77;1.50;;;;;;;17.16;57.65;101518.19;5063809;28;20023;-28
2022/08/06 01:45:57;;;;;;;1.85;1.08;;;;;;;17.13;58.08;101512.06;5094746;28;20028;-27
2022/08/06 01:48:25;;;;;;;1.10;1.10;;;;;;;17.12;58.00;101515.63;5056957;28;20636;-27
2022/08/06 01:50:52;;;;;;;1.65;1.10;;;;;;;17.09;57.64;101516.59;5076211;28;20027;-27
2022/08/06 01:53:23;;;;;;;2.65;1.75;;;;;;;17.03;58.06;101522.91;5074504;28;20035;-27
2022/08/06 01:55:51;;;;;;;1.17;1.10;;;;;;;17.02;58.07;101526.50;5062832;28;20031;-27
2022/08/06 01:58:20;;;;;;;2.45;1.63;;;;;;;17.02;57.82;101531.81;5085284;28;20051;-27
2022/08/06 02:00:48;;;;;;;2.90;1.38;;;;;;;17.00;57.72;101538.94;5083189;28;20028;-27
2022/08/06 02:03:18;;;;;;;1.10;1.08;;;;;;;16.95;58.27;101539.97;5075145;28;20051;-27
2022/08/06 02:05:44;;;;;;;1.38;1.23;;;;;;;16.90;58.07;101545.38;5067712;28;20038;-28
2022/08/06 02:08:12;;;;;;;1.30;1.20;;;;;;;16.86;57.81;101551.69;5104132;28;20049;-27
2022/08/06 02:10:38;;;;;;;1.55;1.00;;;;;;;16.83;58.32;101551.75;5080223;28;20036;-28
2022/08/06 02:13:04;;;;;;;1.58;1.38;;;;;;;16.80;57.97;101550.94;5099302;28;20034;-27
2022/08/06 02:15:30;;;;;;;1.50;1.40;;;;;;;16.78;57.87;101550.06;5083260;28;20035;-27
2022/08/06 02:17:58;;;;;;;1.48;1.15;;;;;;;16.79;58.06;101551.84;5081957;28;20082;-28
2022/08/06 02:20:30;;;;;;;2.00;1.27;;;;;;;16.77;58.04;101563.41;5077654;28;20058;-28
2022/08/06 02:22:56;;;;;;;1.58;1.38;;;;;;;16.72;58.34;101560.88;5089803;28;20023;-28
2022/08/06 02:25:23;;;;;;;1.98;1.23;;;;;;;16.72;57.83;101574.19;5060792;28;20020;-28
2022/08/06 02:27:50;;;;;;;2.30;1.27;;;;;;;16.68;58.26;101575.16;5099194;28;20073;-27
2022/08/06 02:30:16;;;;;;;2.58;1.38;;;;;;;16.66;57.79;101571.63;5058286;28;20115;-27
2022/08/06 02:32:42;;;;;;;2.20;1.35;;;;;;;16.62;57.90;101576.16;5071016;28;20026;-27
2022/08/06 02:35:08;;;;;;;1.83;0.90;;;;;;;16.58;57.71;101578.91;5070926;28;20035;-29
2022/08/06 02:37:41;;;;;;;1.13;1.13;;;;;;;16.51;58.13;101584.34;5103234;28;20521;-27
2022/08/06 02:40:17;;;;;;;2.38;1.17;;;;;;;16.49;57.88;101580.84;5087800;28;20421;-28
2022/08/06 02:42:47;;;;;;;1.48;1.38;;;;;;;16.47;57.95;101587.13;5083864;28;20028;-27
2022/08/06 02:45:21;;;;;;;2.20;1.40;;;;;;;16.41;58.02;101583.66;5082902;28;20433;-27
2022/08/06 02:48:08;;;;;;;1.42;1.10;;;;;;;16.41;57.77;101591.63;5087628;28;20483;-27
2022/08/06 02:50:39;;;;;;;1.48;1.23;;;;;;;16.36;57.87;101592.63;5060161;28;20123;-28
2022/08/06 02:53:08;;;;;;;1.67;1.48;;;;;;;16.31;58.17;101592.75;5063047;28;20318;-27
2022/08/06 02:55:38;;;;;;;2.05;1.23;;;;;;;16.28;58.07;101598.97;5077515;28;20078;-27
2022/08/06 02:58:16;;;;;;;1.83;1.48;;;;;;;16.25;58.62;101604.38;5076814;28;20494;-27
2022/08/06 03:00:42;;;;;;;1.42;1.13;;;;;;;16.24;57.96;101599.94;5056113;28;20074;-27
2022/08/06 03:03:09;;;;;;;1.80;1.00;;;;;;;16.19;57.80;101609.81;5072273;28;20114;-27
2022/08/06 03:05:36;;;;;;;1.50;1.10;;;;;;;16.18;57.84;101612.47;5081021;28;20032;-27
2022/08/06 03:08:03;;;;;;;1.23;1.13;;;;;;;16.11;58.08;101601.94;5086194;28;20115;-28
2022/08/06 03:10:29;;;;;;;1.90;1.20;;;;;;;16.14;58.33;101606.34;5095368;28;20023;-27
2022/08/06 03:12:56;;;;;;;1.50;1.40;;;;;;;16.08;58.32;101609.09;5075890;28;20055;-27
2022/08/06 03:15:22;;;;;;;1.17;1.13;;;;;;;16.09;58.44;101613.50;5059027;28;20033;-27
2022/08/06 03:17:49;;;;;;;1.50;1.40;;;;;;;16.07;57.94;101618.00;5080149;28;20429;-27
2022/08/06 03:20:18;;;;;;;2.63;1.17;;;;;;;16.00;58.25;101620.75;5106987;28;20020;-27
2022/08/06 03:22:46;;;;;;;2.40;1.30;;;;;;;16.00;58.11;101617.22;5084079;28;20098;-27
2022/08/06 03:25:13;;;;;;;1.88;1.17;;;;;;;15.93;58.23;101611.09;5083401;28;20024;-27
2022/08/06 03:27:39;;;;;;;1.23;1.20;;;;;;;15.91;58.11;101610.25;5072748;28;20019;-27
2022/08/06 03:30:05;;;;;;;1.88;1.20;;;;;;;15.86;58.05;101606.75;5095986;28;20028;-27
2022/08/06 03:32:32;;;;;;;1.60;1.50;;;;;;;15.83;58.62;101612.13;5066363;28;20028;-28
2022/08/06 03:34:57;;;;;;;1.35;1.15;;;;;;;15.83;58.44;101618.34;5093463;28;20058;-27
2022/08/06 03:37:23;;;;;;;2.15;1.23;;;;;;;15.80;58.54;101622.84;5102341;28;20051;-27
2022/08/06 03:39:49;;;;;;;1.90;1.38;;;;;;;15.82;58.46;101629.00;5099232;28;20027;-27
2022/08/06 03:42:15;;;;;;;1.52;1.10;;;;;;;15.74;58.70;101630.00;5063513;28;20039;-27
2022/08/06 03:44:40;;;;;;;1.50;1.40;;;;;;;15.70;58.31;101638.94;5079715;28;20464;-27
2022/08/06 03:47:12;;;;;;;1.92;1.10;;;;;;;15.65;58.04;101639.00;5082400;28;20031;-27
2022/08/06 03:50:07;;;;;;;1.83;1.20;;;;;;;15.64;57.88;101645.22;5081606;28;20140;-27
2022/08/06 03:52:56;;;;;;;1.40;1.10;;;;;;;15.54;57.53;101654.22;5070131;28;20040;-27
2022/08/06 03:55:26;;;;;;;1.63;1.23;;;;;;;15.47;57.36;101653.44;5100560;28;20044;-28
2022/08/06 03:57:55;;;;;;;2.25;1.55;;;;;;;15.42;57.56;101655.28;5081360;28;20118;-27
2022/08/06 04:00:24;;;;;;;1.52;1.42;;;;;;;15.33;57.50;101658.94;5078339;28;20663;-27
2022/08/06 04:02:52;;;;;;;2.45;1.10;;;;;;;15.25;57.44;101669.66;5074761;28;20024;-27
2022/08/06 04:05:20;;;;;;;2.30;1.70;;;;;;;15.19;57.41;101675.06;5074696;28;20111;-27
2022/08/06 04:07:47;;;;;;;1.42;1.30;;;;;;;15.11;57.69;101683.13;5096218;28;20027;-27
2022/08/06 04:10:12;;;;;;;1.67;1.38;;;;;;;15.07;57.72;101673.44;5097446;28;20102;-27
2022/08/06 04:12:38;;;;;;;1.95;1.25;;;;;;;15.01;58.18;101682.34;5064397;28;20123;-28
2022/08/06 04:15:05;;;;;;;1.67;1.20;;;;;;;15.08;57.65;101687.59;5093146;28;20463;-27
2022/08/06 04:17:31;;;;;;;1.40;1.30;;;;;;;15.06;57.54;101689.38;5078755;28;20035;-28
2022/08/06 04:19:57;;;;;;;3.63;1.98;;;;;;;15.03;57.89;101694.75;5083569;28;20023;-27
2022/08/06 04:22:23;;;;;;;1.60;1.50;;;;;;;14.94;58.24;101701.91;5080528;28;20447;-27
2022/08/06 04:24:48;;;;;;;2.13;1.30;;;;;;;14.95;58.12;101698.38;5077920;28;20095;-27
2022/08/06 04:27:14;;;;;;;1.65;1.13;;;;;;;14.96;57.96;101705.44;5075459;28;20062;-27
2022/08/06 04:29:40;;;;;;;1.38;1.20;;;;;;;14.91;58.54;101711.69;5071273;28;20030;-27
2022/08/06 04:32:06;;;;;;;1.40;1.30;;;;;;;14.88;58.53;101709.97;5063325;28;20024;-27
2022/08/06 04:34:33;;;;;;;1.63;1.52;;;;;;;14.84;58.83;101716.22;5071974;28;20388;-27
2022/08/06 04:37:00;;;;;;;1.70;1.60;;;;;;;14.83;58.93;101712.66;5078191;28;20023;-27
2022/08/06 04:39:26;;;;;;;1.58;1.33;;;;;;;14.84;58.59;101722.38;5086069;28;20019;-27
2022/08/06 04:41:52;;;;;;;1.30;1.15;;;;;;;14.83;58.98;101727.69;5094648;28;20383;-27
2022/08/06 04:44:17;;;;;;;2.13;1.58;;;;;;;14.84;58.66;101732.16;5089263;28;20046;-27
2022/08/06 04:46:48;;;;;;;1.50;1.40;;;;;;;14.86;58.76;101738.31;5079143;28;20024;-27
2022/08/06 04:49:16;;;;;;;1.40;1.30;;;;;;;14.83;58.69;101735.66;5109988;28;20103;-27
2022/08/06 04:51:46;;;;;;;1.27;1.17;;;;;;;14.78;58.99;101742.81;5072626;28;20090;-27
2022/08/06 04:54:12;;;;;;;2.08;1.50;;;;;;;14.75;58.69;101744.56;5077094;28;20452;-27
2022/08/06 04:56:38;;;;;;;1.60;1.50;;;;;;;14.77;58.72;101749.00;5090726;28;20028;-28
2022/08/06 04:59:04;;;;;;;1.50;1.40;;;;;;;14.75;58.94;101751.66;5100287;28;20026;-27
2022/08/06 05:01:30;;;;;;;2.63;1.60;;;;;;;14.75;58.83;101757.84;5104503;28;20450;-28
2022/08/06 05:03:55;;;;;;;1.58;1.48;;;;;;;14.75;58.71;101765.81;5103505;28;20076;-27
2022/08/06 05:06:33;;;;;;;1.40;1.30;;;;;;;14.74;58.99;101768.50;5056748;28;20043;-29
2022/08/06 05:09:02;;;;;;;1.27;1.27;;;;;;;14.78;59.10;101764.94;5052167;28;20028;-27
2022/08/06 05:11:31;;;;;;;2.65;2.17;;;;;;;14.79;59.14;101771.13;5051168;28;20039;-27
2022/08/06 05:13:58;;;;;;;1.70;1.50;;;;;;;14.77;59.08;101772.91;5065953;28;20583;-29
2022/08/06 05:16:25;;;;;;;1.60;1.33;;;;;;;14.77;59.10;101773.78;5050761;28;20039;-28
2022/08/06 05:18:55;;;;;;;1.73;1.60;;;;;;;14.81;59.17;101779.97;5050416;28;20055;-28
2022/08/06 05:21:23;;;;;;;1.55;1.45;;;;;;;14.84;59.24;101782.59;5050332;28;20036;-29
2022/08/06 05:23:51;;;;;;;1.63;1.40;;;;;;;14.86;59.17;101779.03;5070768;28;20122;-28
2022/08/06 05:26:16;;;;;;;1.48;1.20;;;;;;;14.89;59.00;101786.09;5052646;28;20491;-28
2022/08/06 05:28:42;;;;;;;1.85;1.75;;;;;;;14.90;59.40;101787.84;5068808;28;20040;-28
2022/08/06 05:31:07;;;;;;;2.35;1.40;;;;;;;14.94;59.40;101791.38;5067871;28;20036;-28
2022/08/06 05:33:37;;;;;;;1.48;1.38;;;;;;;14.94;59.39;101799.34;5069797;28;20789;-27
2022/08/06 05:36:05;;;;;;;1.55;1.45;;;;;;;14.95;59.66;101801.97;5073849;28;20567;-28
2022/08/06 05:38:34;;;;;;;2.35;1.48;;;;;;;14.98;59.52;101806.38;5072449;28;20062;-28
2022/08/06 05:40:59;;;;;;;1.60;1.50;;;;;;;15.00;59.60;101797.50;5020605;28;20507;-28
2022/08/06 05:43:25;;;;;;;1.88;1.70;;;;;;;15.02;59.85;101794.81;5054536;28;20146;-28
2022/08/06 05:45:53;;;;;;;1.75;1.30;;;;;;;15.05;59.73;101794.78;5056373;28;20047;-28
2022/08/06 05:48:20;;;;;;;2.67;1.35;;;;;;;15.08;59.84;101812.47;5071955;28;20032;-27
2022/08/06 05:50:58;;;;;;;1.80;1.33;;;;;;;15.09;59.88;101808.91;5056027;28;20526;-28
2022/08/06 05:53:35;;;;;;;1.30;1.20;;;;;;;15.14;59.90;101804.47;5052309;28;20039;-27
2022/08/06 05:56:06;;;;;;;1.40;1.30;;;;;;;15.19;59.86;101812.34;5054454;28;20777;-27
2022/08/06 05:58:37;;;;;;;1.50;1.40;;;;;;;15.23;59.90;101814.97;5075961;28;20103;-28
2022/08/06 06:01:04;;;;;;;1.40;1.30;;;;;;;15.29;59.91;101818.44;5032118;28;20031;-28
2022/08/06 06:03:30;;;;;;;1.40;1.30;;;;;;;15.35;59.83;101813.09;5049974;28;20028;-28
2022/08/06 06:05:56;;;;;;;1.27;0.82;;;;;;;15.38;59.77;101821.03;5051944;28;20031;-28
2022/08/06 06:08:22;;;;;;;2.03;1.25;;;;;;;15.44;59.87;101823.59;5068478;28;20066;-28
2022/08/06 06:10:47;;;;;;;3.90;1.50;;;;;;;15.51;59.91;101819.13;5060766;28;20078;-27
2022/08/06 06:13:13;;;;;;;1.45;1.33;;;;;;;15.57;59.88;101827.00;5061721;28;20494;-27
2022/08/06 06:15:43;;;;;;;1.73;1.52;;;;;;;15.65;59.95;101824.28;5063070;28;20024;-27
2022/08/06 06:18:21;;;;;;;2.40;1.77;;;;;;;15.70;60.06;101819.75;5066663;28;20032;-28
2022/08/06 06:21:38;;;;;;;1.35;1.25;;;;;;;15.78;60.18;101827.66;5067538;28;20505;-27
2022/08/06 06:24:29;;;;;;;1.40;1.30;;;;;;;15.86;60.04;101827.56;5024211;28;20031;-27
2022/08/06 06:26:54;;;;;;;1.42;1.15;;;;;;;15.92;60.10;101827.47;5036717;28;20507;-28
2022/08/06 06:29:41;;;;;;;2.67;1.30;;;;;;;15.99;59.95;101829.19;5075845;28;20031;-27
2022/08/06 06:32:53;;;;;;;2.80;1.13;;;;;;;16.06;60.03;101826.44;5050424;28;20028;-28
2022/08/06 06:35:27;;;;;;;2.47;1.20;;;;;;;16.13;60.47;101828.09;5033367;28;20182;-27
2022/08/06 06:38:14;;;;;;;1.30;1.20;;;;;;;16.21;60.18;101831.53;5071613;28;20028;-27
2022/08/06 06:40:57;;;;;;;1.50;1.40;;;;;;;16.29;60.11;101834.09;5074343;28;20105;-30
2022/08/06 06:43:35;;;;;;;3.95;1.38;;;;;;;16.36;60.38;101830.44;5070647;28;20605;-26
2022/08/06 06:46:06;;;;;;;1.27;1.17;;;;;;;16.42;60.28;101830.38;5073563;28;20058;-26
2022/08/06 06:48:45;;;;;;;3.47;1.30;;;;;;;16.50;60.38;101835.56;5071054;28;20468;-30
2022/08/06 06:51:26;;;;;;;1.73;1.63;;;;;;;16.59;60.32;101831.00;5056261;28;20058;-29
2022/08/06 06:53:53;;;;;;;3.40;1.77;;;;;;;16.67;60.31;101839.72;5072181;28;20032;-29
2022/08/06 06:56:21;;;;;;;3.30;1.50;;;;;;;16.73;60.43;101836.97;5053913;28;20282;-28
2022/08/06 06:59:18;;;;;;;1.90;1.20;;;;;;;16.83;60.23;101839.47;5057847;28;20491;-27
2022/08/06 07:01:45;;;;;;;3.78;1.17;;;;;;;16.90;60.56;101847.34;5037702;28;20043;-27
2022/08/06 07:04:13;;;;;;;1.45;1.33;;;;;;;16.99;59.84;101846.31;5056867;28;20463;-26
2022/08/06 07:06:40;;;;;;;2.20;1.30;;;;;;;17.08;59.96;101850.66;5071725;28;20048;-30
2022/08/06 07:09:06;;;;;;;4.55;1.35;;;;;;;17.16;60.02;101847.84;5059429;28;20381;-30
2022/08/06 07:11:33;;;;;;;1.00;0.98;;;;;;;17.22;60.20;101847.72;5052035;28;20664;-28
2022/08/06 07:13:59;;;;;;;2.63;1.35;;;;;;;17.31;59.99;101842.22;5068946;28;20398;-27
2022/08/06 07:16:25;;;;;;;1.45;1.35;;;;;;;17.40;60.27;101845.59;5060852;28;20032;-26
2022/08/06 07:18:53;;;;;;;3.45;1.60;;;;;;;17.48;59.93;101857.03;5070038;28;20032;-27
2022/08/06 07:21:19;;;;;;;1.25;1.20;;;;;;;17.56;59.66;101852.44;5032739;28;20173;-27
2022/08/06 07:23:46;;;;;;;2.45;1.30;;;;;;;17.68;60.51;101847.75;5056860;28;20093;-30
2022/08/06 07:26:17;;;;;;;3.90;1.13;;;;;;;17.78;59.66;101851.97;5050054;28;20020;-29
2022/08/06 07:28:43;;;;;;;2.88;1.25;;;;;;;17.89;61.30;101853.53;5070698;28;20047;-29
2022/08/06 07:31:11;;;;;;;1.77;1.60;;;;;;;18.00;61.96;101853.34;5052518;28;20031;-29
2022/08/06 07:33:38;;;;;;;3.40;1.30;;;;;;;18.06;61.38;101856.75;5057210;28;20024;-27
2022/08/06 07:36:05;;;;;;;1.40;1.15;;;;;;;18.14;61.35;101863.75;5071870;28;20036;-28
2022/08/06 07:38:31;;;;;;;4.13;1.75;;;;;;;18.21;60.58;101860.03;5074183;28;20063;-28
2022/08/06 07:41:02;;;;;;;3.55;1.20;;;;;;;18.27;59.93;101859.00;5058088;28;20131;-29
2022/08/06 07:43:31;;;;;;;1.63;1.17;;;;;;;18.33;60.05;101865.09;5077365;28;20019;-27
2022/08/06 07:45:59;;;;;;;1.52;1.17;;;;;;;18.41;60.22;101858.69;5101390;28;20493;-28
2022/08/06 07:48:28;;;;;;;2.35;1.10;;;;;;;18.50;60.22;101869.16;5081630;28;20421;-30
2022/08/06 07:50:54;;;;;;;1.48;1.20;;;;;;;18.54;59.85;101862.81;5081589;28;20028;-30
2022/08/06 07:53:21;;;;;;;3.85;1.40;;;;;;;18.59;59.30;101868.06;5091479;28;20444;-30
2022/08/06 07:55:47;;;;;;;1.80;1.10;;;;;;;18.67;59.51;101867.88;5085918;28;20023;-30
2022/08/06 07:58:14;;;;;;;1.23;1.10;;;;;;;18.72;57.82;101863.28;5080064;28;20369;-29
2022/08/06 08:00:40;;;;;;;1.10;1.00;;;;;;;18.84;59.27;101865.66;5078810;28;20020;-30
2022/08/06 08:08:33;;;;;;;1.40;1.05;;;;;;;19.22;58.19;101864.75;5074908;28;20034;-30
2022/08/06 08:10:59;;;;;;;1.83;1.10;;;;;;;19.35;58.10;101868.81;5064420;28;20019;-30
2022/08/06 08:13:25;;;;;;;1.30;1.20;;;;;;;19.49;58.06;101870.25;5099211;28;20149;-30
2022/08/06 08:15:51;;;;;;;2.25;1.45;;;;;;;19.62;56.88;101870.81;5064502;28;20144;-30
2022/08/06 08:18:16;;;;;;;1.60;1.38;;;;;;;19.70;56.40;101882.16;5054765;28;20380;-30
2022/08/06 08:20:42;;;;;;;1.13;1.02;;;;;;;19.75;56.10;101874.88;5071300;28;20081;-29
2022/08/06 08:23:11;;;;;;;0.80;0.80;;;;;;;19.81;55.98;101878.31;5072482;28;20093;-30
2022/08/06 08:25:37;;;;;;;2.47;0.80;;;;;;;19.87;56.79;101884.34;5059692;28;20054;-27
2022/08/06 08:28:04;;;;;;;1.17;0.75;;;;;;;19.95;56.57;101886.81;5068456;28;20741;-30
2022/08/06 08:30:30;;;;;;;2.45;0.80;;;;;;;20.03;56.20;101883.03;5078903;28;20092;-30
2022/08/06 08:32:55;;;;;;;1.77;1.05;;;;;;;20.11;56.22;101870.31;5070801;28;20430;-29
2022/08/06 08:35:21;;;;;;;1.55;0.93;;;;;;;20.20;55.44;101878.06;5058685;28;20360;-30
2022/08/06 08:37:46;;;;;;;1.35;0.90;;;;;;;20.29;55.27;101884.94;5075691;28;20070;-28
2022/08/06 08:40:11;;;;;;;1.55;0.82;;;;;;;20.39;54.88;101874.81;5069623;28;20354;-29
2022/08/06 08:42:40;;;;;;;1.48;1.05;;;;;;;20.53;54.27;101884.22;5061390;28;20052;-29
2022/08/06 08:45:06;;;;;;;1.67;0.80;;;;;;;20.64;54.07;101884.72;5054458;28;20151;-29
2022/08/06 08:47:33;;;;;;;1.15;0.75;;;;;;;20.68;53.81;101886.41;5068228;28;20027;-31
2022/08/06 08:49:59;;;;;;;1.60;0.80;;;;;;;20.74;53.78;101882.66;5067388;28;20506;-28
2022/08/06 08:52:34;;;;;;;2.25;0.90;;;;;;;20.80;54.00;101885.13;5027684;28;20063;-26
2022/08/06 08:55:06;;;;;;;1.85;0.80;;;;;;;20.84;54.15;101889.44;5041964;28;20020;-28
2022/08/06 08:57:32;;;;;;;0.75;0.70;;;;;;;20.92;53.94;101885.66;5069909;28;20490;-31
2022/08/06 08:59:59;;;;;;;2.88;1.00;;;;;;;20.95;53.86;101888.25;5061066;28;20062;-30
2022/08/06 09:02:26;;;;;;;2.47;0.90;;;;;;;20.99;53.59;101888.09;5050756;28;20399;-28
2022/08/06 09:04:52;;;;;;;0.85;0.82;;;;;;;21.02;53.13;101890.69;5068107;28;20032;-27
2022/08/06 09:07:18;;;;;;;2.42;0.82;;;;;;;21.05;53.06;101895.06;5072984;28;20031;-30
2022/08/06 09:09:43;;;;;;;3.00;1.13;;;;;;;21.07;52.37;101893.19;5069501;28;20451;-28
2022/08/06 09:12:09;;;;;;;1.58;1.00;;;;;;;21.07;52.21;101890.50;5032911;28;20031;-30
2022/08/06 09:14:35;;;;;;;1.30;1.20;;;;;;;21.11;52.10;101881.41;5068036;28;20032;-28
2022/08/06 09:17:02;;;;;;;1.65;0.88;;;;;;;21.21;52.97;101889.16;5090104;28;20320;-28
2022/08/06 09:19:29;;;;;;;1.20;0.82;;;;;;;21.26;52.19;101895.25;5080402;28;20027;-30
2022/08/06 09:21:58;;;;;;;1.15;0.80;;;;;;;21.35;52.48;101892.25;5092047;28;20074;-30
2022/08/06 09:24:24;;;;;;;1.30;0.90;;;;;;;21.48;51.87;101897.16;5094726;28;20022;-30
2022/08/06 09:27:04;;;;;;;1.95;1.10;;;;;;;21.62;51.86;101889.50;5097118;28;20024;-29
2022/08/06 09:29:30;;;;;;;2.40;0.80;;;;;;;21.74;51.45;101887.34;5069964;28;20038;-30
2022/08/06 09:31:56;;;;;;;1.60;0.73;;;;;;;21.84;50.19;101883.34;5077842;28;20049;-31
2022/08/06 09:34:31;;;;;;;1.13;0.88;;;;;;;21.95;50.17;101890.13;5100827;28;20016;-30
2022/08/06 09:36:56;;;;;;;1.75;1.10;;;;;;;22.03;50.35;101890.72;5097897;28;20031;-30
2022/08/06 09:39:44;;;;;;;1.13;1.00;;;;;;;22.10;49.65;101873.41;5074308;28;20032;-30
2022/08/06 09:42:09;;;;;;;2.55;0.98;;;;;;;22.18;49.25;101874.00;5090570;28;20066;-30
2022/08/06 09:44:35;;;;;;;1.23;0.80;;;;;;;22.30;49.41;101879.81;5075090;28;20034;-30
2022/08/06 09:47:00;;;;;;;2.00;0.80;;;;;;;22.37;49.42;101881.31;5076714;28;20111;-29
2022/08/06 09:49:27;;;;;;;1.38;1.15;;;;;;;22.48;49.36;101882.72;5087580;28;20109;-30
2022/08/06 09:52:11;;;;;;;0.70;0.60;;;;;;;22.53;48.99;101886.97;5053045;28;20407;-27
2022/08/06 09:54:38;;;;;;;1.70;0.57;;;;;;;22.54;48.41;101888.72;5085329;28;20031;-30
2022/08/06 09:57:03;;;;;;;0.70;0.60;;;;;;;22.58;48.92;101884.13;5072756;28;21549;-30
2022/08/06 09:59:41;;;;;;;1.58;1.00;;;;;;;22.66;48.36;101876.63;5077525;28;20036;-29
2022/08/06 10:02:13;;;;;;;0.80;0.80;;;;;;;22.74;48.81;101873.59;5072365;28;20103;-28
2022/08/06 10:04:38;;;;;;;0.68;0.68;;;;;;;22.89;48.79;101877.47;5062760;28;20092;-29
2022/08/06 10:07:04;;;;;;;0.70;0.68;;;;;;;22.96;48.20;101878.09;5077225;28;20395;-27
2022/08/06 10:09:32;;;;;;;0.60;0.60;;;;;;;23.06;48.00;101879.44;5078323;28;21164;-30
2022/08/06 10:11:58;;;;;;;2.67;0.70;;;;;;;22.87;45.21;101871.28;5074808;28;20498;-29
2022/08/06 10:14:28;;;;;;;3.95;0.85;;;;;;;23.08;47.00;101868.63;5073685;28;20028;-30
2022/08/06 10:17:06;;;;;;;1.52;0.60;;;;;;;23.29;46.49;101874.88;5071665;28;20475;-29
2022/08/06 10:19:32;;;;;;;1.30;0.70;;;;;;;23.42;46.49;101867.16;5083329;28;21463;-29
2022/08/06 10:22:08;;;;;;;1.90;0.52;;;;;;;23.53;45.97;101868.47;5078722;28;20476;-29
2022/08/06 10:24:37;;;;;;;2.17;0.88;;;;;;;23.63;45.91;101877.91;5087450;28;20076;-30
2022/08/06 10:27:06;;;;;;;0.77;0.77;;;;;;;23.67;45.84;101878.63;5101087;28;20020;-29
2022/08/06 10:29:33;;;;;;;0.60;0.50;;;;;;;23.68;44.60;101870.47;5093295;28;20106;-30
2022/08/06 10:31:58;;;;;;;1.13;0.70;;;;;;;23.68;44.70;101873.16;5065976;28;20074;-27
2022/08/06 10:34:26;;;;;;;1.33;0.68;;;;;;;23.70;45.19;101881.19;5076326;28;20048;-27
2022/08/06 10:36:58;;;;;;;1.23;0.85;;;;;;;23.74;46.51;101877.41;5091992;28;20028;-27
2022/08/06 10:39:26;;;;;;;1.10;0.70;;;;;;;23.74;45.59;101876.53;5105226;28;20028;-27
2022/08/06 10:41:54;;;;;;;2.63;1.13;;;;;;;23.73;45.01;101885.53;5102567;28;20023;-27
2022/08/06 10:44:20;;;;;;;1.38;0.73;;;;;;;23.73;45.42;101880.16;5096686;28;20024;-27
2022/08/06 10:46:45;;;;;;;0.90;0.50;;;;;;;23.74;45.56;101869.31;5072565;28;20027;-27
2022/08/06 10:49:11;;;;;;;1.48;0.60;;;;;;;23.83;45.40;101865.31;5093960;28;20098;-30
2022/08/06 10:51:37;;;;;;;2.10;0.63;;;;;;;23.94;45.71;101851.38;5081503;28;20035;-30
2022/08/06 10:54:03;;;;;;;0.93;0.63;;;;;;;24.02;45.25;101856.38;5068540;28;20023;-30
2022/08/06 10:56:28;;;;;;;2.22;0.60;;;;;;;24.09;45.10;101852.44;5070236;28;20094;-30
2022/08/06 10:58:54;;;;;;;0.85;0.63;;;;;;;24.17;44.27;101861.06;5075007;28;20037;-30
2022/08/06 11:01:43;;;;;;;0.82;0.60;;;;;;;24.20;43.96;101860.94;5075349;28;20031;-30
2022/08/06 11:04:38;;;;;;;0.70;0.50;;;;;;;24.21;43.31;101857.28;5072262;28;20370;-27
2022/08/06 11:07:41;;;;;;;0.95;0.50;;;;;;;24.29;43.37;101853.34;5072318;28;20024;-30
2022/08/06 11:10:35;;;;;;;0.57;0.50;;;;;;;24.36;43.26;101852.09;5081684;28;20049;-27
2022/08/06 11:13:16;;;;;;;1.10;0.60;;;;;;;24.38;42.31;101844.81;5072243;28;20044;-29
2022/08/06 11:15:42;;;;;;;4.88;0.70;;;;;;;24.45;42.99;101846.22;5071790;28;20077;-28
2022/08/06 11:18:09;;;;;;;1.38;0.50;;;;;;;24.51;42.45;101846.91;5069504;28;20043;-29
2022/08/06 11:20:39;;;;;;;1.42;0.75;;;;;;;24.56;42.24;101845.72;5074497;28;20122;-29
2022/08/06 11:23:21;;;;;;;;;;;;;;;24.65;41.97;101848.91;5070891;28;20019;-28
2022/08/06 11:25:52;;;;;;;0.68;0.50;;;;;;;24.69;41.68;101856.75;5053568;28;19916;-28
2022/08/06 11:28:38;;;;;;;1.42;0.68;;;;;;;24.79;41.38;101848.19;5075448;28;20103;-29
2022/08/06 11:31:05;;;;;;;1.33;0.60;;;;;;;24.83;41.69;101847.06;5055590;28;20076;-29
2022/08/06 11:33:33;;;;;;;1.17;0.57;;;;;;;24.85;41.46;101843.38;5071724;28;20024;-29
2022/08/06 11:36:03;;;;;;;1.70;0.40;;;;;;;24.91;41.51;101839.50;5072861;28;20411;-27
2022/08/06 11:38:50;;;;;;;1.42;0.50;;;;;;;25.01;41.55;101841.72;5076035;28;21625;-27
2022/08/06 11:41:22;;;;;;;0.65;0.57;;;;;;;25.10;41.83;101843.94;5080056;28;20133;-27